Terminal Aerodrome Forecast
Issued by NWS Brownsville, TX

Home | Current Version | Previous Version | Text Only | Print | Product List | Glossary On
Versions: 1 2 3 4 5 6 7 8 9 10 11 12 13 14 15 16 17
000
FTUS44 KBRO 300529
TAFHRL
TAF
KHRL 300529Z 3006/3106 06006KT P6SM SCT250
     FM300800 03004KT 2SM BR SCT008
     FM301200 VRB02KT 1/2SM FG SCT005
     FM301400 03010KT P6SM BKN020
     FM301900 06012G17KT P6SM OVC025
     FM310200 08009KT P6SM OVC010=

USA.gov is the U.S. government's official web portal to all federal, state and local government web resources and services.